createdAt,value
2018-02-27T00:01:24.466Z,56.40
2018-02-27T00:06:52.670Z,56.30
2018-02-27T00:12:20.943Z,56.50
2018-02-27T00:17:49.113Z,56.60
2018-02-27T00:23:18.067Z,57.00
2018-02-27T00:28:46.251Z,57.00
2018-02-27T00:34:14.475Z,57.10
2018-02-27T00:39:42.644Z,57.60
2018-02-27T00:45:11.802Z,58.30
2018-02-27T00:50:40.914Z,57.50
2018-02-27T00:56:09.072Z,57.50
2018-02-27T01:01:37.231Z,57.40
2018-02-27T01:07:05.405Z,57.40
2018-02-27T01:12:33.596Z,57.30
2018-02-27T01:18:03.098Z,57.00
2018-02-27T01:23:31.279Z,56.90
2018-02-27T01:28:59.440Z,56.90
2018-02-27T01:34:27.604Z,56.70
2018-02-27T01:39:56.528Z,56.60
2018-02-27T01:45:24.710Z,56.50
2018-02-27T01:51:10.737Z,56.60
2018-02-27T01:56:38.910Z,56.50
2018-02-27T02:02:07.875Z,56.40
2018-02-27T02:07:36.040Z,56.30
2018-02-27T02:13:04.192Z,56.40
2018-02-27T02:18:33.129Z,56.30
2018-02-27T02:24:02.072Z,56.20
2018-02-27T02:29:31.015Z,56.30
2018-02-27T02:34:59.208Z,56.20
2018-02-27T02:40:27.599Z,56.20
2018-02-27T02:45:55.763Z,56.30
2018-02-27T02:51:24.734Z,56.30
2018-02-27T02:56:53.848Z,56.20
2018-02-27T03:02:22.828Z,56.50
2018-02-27T03:07:51.041Z,56.30
2018-02-27T03:13:19.291Z,56.40
2018-02-27T03:18:48.401Z,56.40
2018-02-27T03:24:16.562Z,56.40
2018-02-27T03:29:44.711Z,56.40
2018-02-27T03:35:13.644Z,56.40
2018-02-27T03:40:42.571Z,56.40
2018-02-27T03:46:10.735Z,56.40
2018-02-27T03:51:38.909Z,56.40
2018-02-27T03:57:07.056Z,56.40
2018-02-27T04:02:35.232Z,56.50
2018-02-27T04:08:03.402Z,56.50
2018-02-27T04:13:32.340Z,56.60
2018-02-27T04:19:00.503Z,56.50
2018-02-27T04:24:28.695Z,56.60
2018-02-27T04:29:56.863Z,56.50
2018-02-27T04:35:25.054Z,56.60
2018-02-27T04:40:53.227Z,56.60
2018-02-27T04:46:22.200Z,56.60
2018-02-27T04:51:50.371Z,56.60
2018-02-27T04:57:19.343Z,56.60
2018-02-27T05:02:47.547Z,56.60
2018-02-27T05:08:15.707Z,56.60
2018-02-27T05:13:47.896Z,56.80
2018-02-27T05:19:16.094Z,56.80
2018-02-27T05:24:45.015Z,56.80
2018-02-27T05:30:13.202Z,56.70
2018-02-27T05:35:41.373Z,56.70
2018-02-27T05:41:09.515Z,56.80
2018-02-27T05:46:38.655Z,56.80
2018-02-27T05:52:06.812Z,56.80
2018-02-27T05:57:34.970Z,56.70
2018-02-27T06:03:04.148Z,56.90
2018-02-27T06:08:32.317Z,57.00
2018-02-27T06:14:01.391Z,56.90
2018-02-27T06:19:30.320Z,56.90
2018-02-27T06:24:59.252Z,57.10
2018-02-27T06:30:29.117Z,57.60
2018-02-27T06:35:58.063Z,57.10
2018-02-27T06:41:26.998Z,57.20
2018-02-27T06:46:55.925Z,57.10
2018-02-27T06:52:24.185Z,57.10
2018-02-27T06:57:52.405Z,58.00
2018-02-27T07:03:20.581Z,57.10
2018-02-27T07:08:48.924Z,57.00
2018-02-27T07:14:17.939Z,56.50
2018-02-27T07:19:46.107Z,56.50
2018-02-27T07:25:14.249Z,56.30
2018-02-27T07:30:42.394Z,56.80
2018-02-27T07:36:10.560Z,56.20
2018-02-27T07:41:38.734Z,55.90
2018-02-27T07:47:06.920Z,56.00
2018-02-27T07:52:35.096Z,55.90
2018-02-27T07:58:04.064Z,55.70
2018-02-27T08:03:32.319Z,55.70
2018-02-27T08:09:00.704Z,55.70
2018-02-27T08:14:29.883Z,55.50
2018-02-27T08:19:58.075Z,55.50
2018-02-27T08:25:26.240Z,55.20
2018-02-27T08:30:58.582Z,55.00
2018-02-27T08:36:27.495Z,54.60
2018-02-27T08:41:55.651Z,54.60
2018-02-27T08:47:24.962Z,54.00
2018-02-27T08:53:09.586Z,54.10
2018-02-27T08:58:39.669Z,54.50
2018-02-27T09:04:08.588Z,54.30
2018-02-27T09:09:36.754Z,54.20
2018-02-27T09:15:04.964Z,54.00
2018-02-27T09:20:33.205Z,54.10
2018-02-27T09:26:03.325Z,53.90
2018-02-27T09:31:32.468Z,53.60
2018-02-27T09:37:01.387Z,53.00
2018-02-27T09:42:29.586Z,53.00
2018-02-27T09:47:57.747Z,53.20
2018-02-27T09:53:26.678Z,53.30
2018-02-27T09:58:54.960Z,52.90
2018-02-27T10:04:23.620Z,53.00
2018-02-27T10:09:51.923Z,52.90
2018-02-27T10:15:20.099Z,52.80
2018-02-27T10:20:48.319Z,52.60
2018-02-27T10:26:18.512Z,52.60
2018-02-27T10:31:46.661Z,53.10
2018-02-27T10:37:14.808Z,52.60
2018-02-27T10:42:43.728Z,52.00
2018-02-27T10:48:11.864Z,52.00
2018-02-27T10:53:40.787Z,51.40
2018-02-27T10:59:08.946Z,51.40
2018-02-27T11:04:37.103Z,51.80
2018-02-27T11:10:05.241Z,51.60
2018-02-27T11:15:33.407Z,50.80
2018-02-27T11:21:01.601Z,50.90
2018-02-27T11:26:30.518Z,50.20
2018-02-27T11:31:58.667Z,50.10
2018-02-27T11:37:27.584Z,49.70
2018-02-27T11:42:55.775Z,49.60
2018-02-27T11:48:23.935Z,50.00
2018-02-27T11:53:53.944Z,50.00
2018-02-27T11:59:23.047Z,49.90
2018-02-27T12:04:52.017Z,49.30
2018-02-27T12:10:20.208Z,49.30
2018-02-27T12:15:51.142Z,48.60
2018-02-27T12:21:19.314Z,48.50
2018-02-27T12:26:48.288Z,48.40
2018-02-27T12:32:16.441Z,48.40
2018-02-27T12:37:44.616Z,48.30
2018-02-27T12:43:19.389Z,48.10
2018-02-27T12:48:47.524Z,47.70
2018-02-27T12:54:15.674Z,47.50
2018-02-27T12:59:43.848Z,47.40
2018-02-27T13:05:13.147Z,46.40
2018-02-27T13:10:42.082Z,46.30
2018-02-27T13:16:10.234Z,46.30
2018-02-27T13:21:38.391Z,46.30
2018-02-27T13:27:07.135Z,46.20
2018-02-27T13:32:35.463Z,44.80
2018-02-27T13:38:13.991Z,44.00
2018-02-27T13:43:42.308Z,44.00
2018-02-27T13:49:10.527Z,44.40
2018-02-27T13:54:38.749Z,44.80
2018-02-27T14:00:06.899Z,45.40
2018-02-27T14:05:35.051Z,44.30
2018-02-27T14:11:03.219Z,43.00
2018-02-27T14:16:42.090Z,40.80
2018-02-27T14:22:18.575Z,40.40
2018-02-27T14:27:46.876Z,40.30
2018-02-27T14:33:30.845Z,39.00
2018-02-27T14:38:59.129Z,38.90
2018-02-27T14:44:32.252Z,42.40
2018-02-27T14:50:01.280Z,42.30
2018-02-27T14:55:33.049Z,41.70
2018-02-27T15:01:01.593Z,41.70
2018-02-27T15:06:30.686Z,41.80
2018-02-27T15:11:58.846Z,41.50
2018-02-27T15:17:26.984Z,41.10
2018-02-27T15:22:55.162Z,39.80
2018-02-27T15:28:23.342Z,40.10
2018-02-27T15:33:52.336Z,41.00
2018-02-27T15:39:20.502Z,40.90
2018-02-27T15:44:49.486Z,41.20
2018-02-27T15:50:17.717Z,41.10
2018-02-27T15:55:46.696Z,42.20
2018-02-27T16:01:15.745Z,42.00
2018-02-27T16:06:44.664Z,42.40
2018-02-27T16:12:12.828Z,42.40
2018-02-27T16:17:40.989Z,42.10
2018-02-27T16:23:09.912Z,42.70
2018-02-27T16:28:38.146Z,43.10
2018-02-27T16:34:06.459Z,43.00
2018-02-27T16:39:34.619Z,43.50
2018-02-27T16:45:03.764Z,43.80
2018-02-27T16:50:31.906Z,44.10
2018-02-27T16:56:04.962Z,44.20
2018-02-27T17:01:33.094Z,44.20
2018-02-27T17:07:01.268Z,44.50
2018-02-27T17:12:29.377Z,44.70
2018-02-27T17:17:59.472Z,45.00
2018-02-27T17:23:27.689Z,45.00
2018-02-27T17:28:55.864Z,45.20
2018-02-27T17:34:24.064Z,45.30
2018-02-27T17:39:52.363Z,45.40
2018-02-27T17:45:21.518Z,45.50
2018-02-27T17:50:50.671Z,45.70
2018-02-27T17:56:18.817Z,45.80
2018-02-27T18:01:46.985Z,46.10
2018-02-27T18:07:15.286Z,46.30
2018-02-27T18:12:44.216Z,46.70
2018-02-27T18:18:13.176Z,47.00
2018-02-27T18:23:41.342Z,46.80
2018-02-27T18:29:09.499Z,47.00
2018-02-27T18:34:38.421Z,47.40
2018-02-27T18:40:06.585Z,47.40
2018-02-27T18:45:34.744Z,47.50
2018-02-27T18:51:02.898Z,47.60
2018-02-27T18:56:31.827Z,47.80
2018-02-27T19:02:00.005Z,47.80
2018-02-27T19:13:04.819Z,47.90
2018-02-27T19:18:34.064Z,47.90
2018-02-27T19:24:03.521Z,48.10
2018-02-27T19:29:31.855Z,48.10
2018-02-27T19:35:00.071Z,48.10
2018-02-27T19:40:29.130Z,48.20
2018-02-27T19:45:57.311Z,48.30
2018-02-27T19:51:26.243Z,48.50
2018-02-27T19:56:55.172Z,48.60
2018-02-27T20:02:24.107Z,48.60
2018-02-27T20:07:53.129Z,48.80
2018-02-27T20:13:21.432Z,48.70
2018-02-27T20:18:49.920Z,48.80
2018-02-27T20:24:19.906Z,49.50
2018-02-27T20:29:48.203Z,49.00
2018-02-27T20:35:16.361Z,49.20
2018-02-27T20:40:44.595Z,49.30
2018-02-27T20:46:12.765Z,49.90
2018-02-27T20:51:41.708Z,49.40
2018-02-27T20:57:09.872Z,49.40
2018-02-27T21:02:40.071Z,50.10
2018-02-27T21:08:09.227Z,50.30
2018-02-27T21:13:37.428Z,49.70
2018-02-27T21:19:05.595Z,49.90
2018-02-27T21:24:33.785Z,50.00
2018-02-27T21:30:02.713Z,50.00
2018-02-27T21:35:32.105Z,50.10
2018-02-27T21:41:00.255Z,50.00
2018-02-27T21:46:28.459Z,50.10
2018-02-27T21:51:56.628Z,50.20
2018-02-27T21:57:25.645Z,50.30
2018-02-27T22:02:53.822Z,50.30
2018-02-27T22:08:21.991Z,50.40
2018-02-27T22:13:50.180Z,50.50
2018-02-27T22:19:18.379Z,50.50
2018-02-27T22:24:46.559Z,50.50
2018-02-27T22:30:14.759Z,50.40
2018-02-27T22:35:42.914Z,50.60
2018-02-27T22:41:11.837Z,50.50
2018-02-27T22:46:40.793Z,50.60
2018-02-27T22:52:10.800Z,50.60
2018-02-27T22:57:38.972Z,50.60
2018-02-27T23:03:07.907Z,50.70
2018-02-27T23:08:36.835Z,50.70
2018-02-27T23:14:05.772Z,50.80
2018-02-27T23:19:34.217Z,50.80
2018-02-27T23:25:28.135Z,50.90
2018-02-27T23:30:57.583Z,50.90
2018-02-27T23:36:26.734Z,51.00
2018-02-27T23:41:55.918Z,51.00
2018-02-27T23:47:24.333Z,50.90
2018-02-27T23:52:52.960Z,51.70
2018-02-27T23:58:21.318Z,51.40
